Terminal Aerodrome Forecast
Issued by NWS Burlington, VT

Home | Current Version | Previous Version | Text Only | Print | Product List | Glossary On
Versions: 1 2 3 4 5 6 7 8 9 10 11 12 13 14 15 16 17 18
000
FTUS41 KBTV 020500
TAFBTV
TAF
KBTV 020525Z 0206/0306 18008KT P6SM SCT050 SCT150
     FM021500 19008G14KT P6SM VCSH SCT050 SCT100
     FM030000 17005KT P6SM SCT050 SCT120=

USA.gov is the U.S. government's official web portal to all federal, state and local government web resources and services.